createdAt,value
2023-02-18T00:00:20.324Z,11.88
2023-02-18T00:10:21.337Z,11.81
2023-02-18T00:20:22.252Z,11.81
2023-02-18T00:30:22.327Z,11.75
2023-02-18T00:40:23.358Z,11.69
2023-02-18T00:50:24.326Z,11.69
2023-02-18T01:00:25.327Z,11.69
2023-02-18T01:10:26.332Z,11.69
2023-02-18T01:20:27.327Z,11.69
2023-02-18T01:30:28.332Z,11.63
2023-02-18T01:40:29.401Z,11.63
2023-02-18T01:50:29.321Z,11.63
2023-02-18T02:00:30.633Z,11.56
2023-02-18T02:10:31.335Z,11.56
2023-02-18T02:20:32.325Z,11.56
2023-02-18T02:30:33.329Z,11.56
2023-02-18T02:40:34.319Z,11.5
2023-02-18T02:50:35.324Z,11.5
2023-02-18T03:00:36.253Z,11.5
2023-02-18T03:10:36.330Z,11.44
2023-02-18T03:20:37.327Z,11.44
2023-02-18T03:30:38.467Z,11.44
2023-02-18T03:40:39.331Z,11.44
2023-02-18T03:50:40.328Z,11.38
2023-02-18T04:00:41.320Z,11.38
2023-02-18T04:10:42.321Z,11.38
2023-02-18T04:20:43.277Z,11.44
2023-02-18T04:30:43.327Z,11.44
2023-02-18T04:40:44.324Z,11.44
2023-02-18T04:50:45.393Z,11.44
2023-02-18T05:00:46.322Z,11.44
2023-02-18T05:10:47.325Z,11.44
2023-02-18T05:20:48.695Z,11.31
2023-02-18T05:30:49.331Z,11.25
2023-02-18T05:40:50.254Z,11.19
2023-02-18T05:50:50.325Z,11.12
2023-02-18T06:00:51.326Z,11.12
2023-02-18T06:10:52.330Z,11.12
2023-02-18T06:20:53.329Z,11.06
2023-02-18T06:30:54.328Z,11.12
2023-02-18T06:40:55.324Z,11.19
2023-02-18T06:50:56.403Z,11.19
2023-02-18T07:00:57.243Z,11.19
2023-02-18T07:10:57.319Z,11.19
2023-02-18T07:20:58.325Z,11.25
2023-02-18T07:30:59.318Z,11.25
2023-02-18T07:41:00.436Z,11.31
2023-02-18T07:51:01.320Z,11.44
2023-02-18T08:01:02.390Z,11.56
2023-02-18T08:11:03.318Z,11.63
2023-02-18T08:21:04.245Z,11.63
2023-02-18T08:31:04.333Z,11.63
2023-02-18T08:41:05.328Z,11.63
2023-02-18T08:51:06.323Z,11.75
2023-02-18T09:01:07.461Z,11.81
2023-02-18T09:11:08.321Z,11.88
2023-02-18T09:21:09.324Z,11.94
2023-02-18T09:31:10.318Z,12.13
2023-02-18T09:41:11.250Z,12.19
2023-02-18T09:51:11.314Z,12.25
2023-02-18T10:01:12.482Z,12.19
2023-02-18T10:11:13.317Z,12.06
2023-02-18T10:21:14.314Z,12
2023-02-18T10:31:15.327Z,12
2023-02-18T10:41:16.319Z,11.94
2023-02-18T10:51:17.320Z,11.94
2023-02-18T11:01:18.245Z,12
2023-02-18T11:11:18.315Z,12
2023-02-18T11:21:19.319Z,11.94
2023-02-18T11:31:20.317Z,11.94
2023-02-18T11:41:21.446Z,12.06
2023-02-18T11:51:22.328Z,12.06
2023-02-18T12:01:23.323Z,12.06
2023-02-18T12:11:24.325Z,12.06
2023-02-18T12:21:25.246Z,12.06
2023-02-18T12:31:25.319Z,12
2023-02-18T12:41:26.330Z,12.13
2023-02-18T12:51:27.323Z,12.56
2023-02-18T13:01:28.318Z,12.56
2023-02-18T13:11:29.326Z,12.37
2023-02-18T13:21:30.321Z,12.31
2023-02-18T13:31:31.332Z,12.19
2023-02-18T13:41:32.389Z,12.25
2023-02-18T13:51:32.317Z,12.31
2023-02-18T14:01:33.318Z,12.25
2023-02-18T14:11:34.315Z,12.19
2023-02-18T14:21:35.315Z,12.13
2023-02-18T14:31:36.320Z,12.06
2023-02-18T14:41:41.114Z,12
2023-02-18T14:51:38.321Z,12
2023-02-18T15:01:39.248Z,12
2023-02-18T15:11:39.324Z,11.94
2023-02-18T15:21:40.323Z,12
2023-02-18T15:31:44.437Z,12
2023-02-18T15:41:41.597Z,11.94
2023-02-18T15:51:43.521Z,12
2023-02-18T16:01:43.595Z,11.94
2023-02-18T16:11:44.768Z,11.94
2023-02-18T16:21:45.598Z,11.88
2023-02-18T16:31:46.604Z,11.88
2023-02-18T16:41:47.601Z,11.81
2023-02-18T16:51:48.671Z,11.81
2023-02-18T17:01:49.607Z,11.75
2023-02-18T17:11:50.527Z,11.75
2023-02-18T17:21:50.595Z,11.69
2023-02-18T17:31:51.598Z,11.69
2023-02-18T17:41:52.603Z,11.69
2023-02-18T17:51:53.623Z,11.69
2023-02-18T18:01:54.604Z,11.63
2023-02-18T18:11:55.598Z,11.56
2023-02-18T18:21:56.597Z,11.56
2023-02-18T18:31:57.518Z,11.56
2023-02-18T18:41:57.692Z,11.5
2023-02-18T18:51:58.607Z,11.5
2023-02-18T19:01:59.605Z,11.44
2023-02-18T19:12:00.634Z,11.44
2023-02-18T19:22:01.596Z,11.38
2023-02-18T19:32:02.598Z,11.38
2023-02-18T19:42:03.613Z,11.31
2023-02-18T19:52:04.667Z,11.31
2023-02-18T20:02:04.602Z,11.31
2023-02-18T20:12:05.606Z,11.19
2023-02-18T20:22:06.603Z,11.19
2023-02-18T20:32:07.604Z,11.12
2023-02-18T20:42:08.599Z,11.12
2023-02-18T20:52:09.598Z,11.12
2023-02-18T21:02:10.599Z,11.12
2023-02-18T21:12:11.526Z,11.12
2023-02-18T21:22:11.602Z,11.06
2023-02-18T21:32:12.600Z,11.06
2023-02-18T21:42:13.730Z,11.06
2023-02-18T21:52:14.595Z,11
2023-02-18T22:02:15.615Z,11
2023-02-18T22:12:16.685Z,11
2023-02-18T22:22:17.602Z,10.94
2023-02-18T22:32:18.544Z,10.94
2023-02-18T22:42:18.597Z,10.94
2023-02-18T22:52:19.591Z,10.94
2023-02-18T23:00:15.506Z,10.94
2023-02-18T23:10:15.441Z,10.88
2023-02-18T23:20:16.441Z,10.88
2023-02-18T23:30:17.499Z,10.88
2023-02-18T23:40:18.491Z,10.88
2023-02-18T23:50:19.441Z,10.88
